Time;durP1;ratioP1;P1;durP2;ratioP2;P2;SDS_P1;SDS_P2;PMS_P1;PMS_P2;Temp;Humidity;BMP_temperature;BMP_pressure;BME280_temperature;BME280_humidity;BME280_pressure;Samples;Min_cycle;Max_cycle;Signal;HPM_P1;HPM_P2
2021/12/20 00:00:20;;;;;;;165.68;79.95;;;4.20;99.90;;;;;;5016379;28;20034;-78
2021/12/20 00:02:50;;;;;;;344.92;156.20;;;4.20;99.90;;;;;;5017610;28;20021;-78
2021/12/20 00:05:18;;;;;;;258.00;118.90;;;4.20;99.90;;;;;;5016238;28;20379;-78
2021/12/20 00:07:44;;;;;;;313.58;132.65;;;4.20;99.90;;;;;;5016011;28;20235;-78
2021/12/20 00:10:10;;;;;;;301.13;113.32;;;4.30;99.90;;;;;;5017378;28;20026;-78
2021/12/20 00:12:36;;;;;;;331.63;100.15;;;4.30;99.90;;;;;;5017600;28;20519;-78
2021/12/20 00:15:03;;;;;;;426.98;92.63;;;4.30;99.90;;;;;;5016353;28;20406;-78
2021/12/20 00:17:29;;;;;;;379.45;111.53;;;4.40;99.90;;;;;;5017562;28;20548;-78
2021/12/20 00:19:54;;;;;;;470.00;107.10;;;4.40;99.90;;;;;;5017063;28;20026;-78
2021/12/20 00:22:20;;;;;;;400.05;118.50;;;4.40;99.90;;;;;;5017546;28;20026;-78
2021/12/20 00:24:46;;;;;;;357.13;86.63;;;4.40;99.90;;;;;;5017291;28;20028;-78
2021/12/20 00:27:14;;;;;;;240.30;70.05;;;4.50;99.90;;;;;;5017345;28;20375;-77
2021/12/20 00:29:39;;;;;;;310.35;76.97;;;4.50;99.90;;;;;;5017167;28;20761;-77
2021/12/20 00:32:06;;;;;;;739.80;206.60;;;4.50;99.90;;;;;;5017408;28;20105;-77
2021/12/20 00:34:33;;;;;;;573.50;162.35;;;4.40;99.90;;;;;;5015442;28;20018;-78
2021/12/20 00:37:05;;;;;;;1020.42;369.02;;;4.40;99.90;;;;;;5017429;28;20096;-78
2021/12/20 00:42:15;;;;;;;188.30;56.55;;;4.40;99.90;;;;;;5017233;28;20072;-78
2021/12/20 00:44:41;;;;;;;357.63;97.35;;;4.30;99.90;;;;;;5015767;28;20077;-78
2021/12/20 00:47:07;;;;;;;233.13;76.25;;;4.30;99.90;;;;;;5015892;28;20038;-78
2021/12/20 00:49:33;;;;;;;474.45;254.35;;;4.20;99.90;;;;;;5016773;28;20018;-78
2021/12/20 00:51:59;;;;;;;272.85;126.95;;;4.20;99.90;;;;;;5017340;28;20080;-78
2021/12/20 00:54:25;;;;;;;94.60;40.88;;;4.10;99.90;;;;;;5016938;28;20022;-78
2021/12/20 00:56:51;;;;;;;177.85;72.18;;;4.10;99.90;;;;;;5017177;28;20026;-78
2021/12/20 00:59:17;;;;;;;72.05;39.85;;;4.00;99.90;;;;;;5015625;28;20056;-78
2021/12/20 01:01:43;;;;;;;89.05;33.67;;;3.80;99.90;;;;;;5017144;28;20073;-78
2021/12/20 01:04:09;;;;;;;68.40;27.20;;;3.70;99.90;;;;;;5016901;28;20026;-78
2021/12/20 01:06:35;;;;;;;90.95;31.48;;;3.50;99.90;;;;;;5017469;28;20056;-78
2021/12/20 01:09:02;;;;;;;83.97;32.88;;;3.40;99.90;;;;;;5020622;28;20030;-78
2021/12/20 01:11:29;;;;;;;49.65;26.45;;;3.40;99.90;;;;;;5020691;28;20393;-78
2021/12/20 01:13:57;;;;;;;59.50;27.75;;;3.30;99.90;;;;;;5020483;28;20022;-77
2021/12/20 01:16:30;;;;;;;71.60;26.58;;;3.30;99.90;;;;;;5020626;28;20014;-78
2021/12/20 01:18:57;;;;;;;69.10;26.15;;;3.30;99.90;;;;;;5020280;28;20037;-78
2021/12/20 01:21:25;;;;;;;73.50;25.20;;;3.30;99.90;;;;;;5020614;28;20049;-77
2021/12/20 01:23:51;;;;;;;70.25;24.50;;;3.30;99.90;;;;;;5020622;28;20029;-77
2021/12/20 01:26:17;;;;;;;87.43;27.55;;;3.30;99.90;;;;;;5020158;28;20045;-78
2021/12/20 01:28:43;;;;;;;86.72;26.08;;;3.40;99.90;;;;;;5020442;28;20022;-78
2021/12/20 01:31:10;;;;;;;74.05;26.77;;;3.30;99.90;;;;;;5051988;28;20169;-78
2021/12/20 01:33:36;;;;;;;65.32;24.10;;;3.40;99.90;;;;;;5020310;28;20018;-78
2021/12/20 01:36:02;;;;;;;103.32;25.52;;;3.40;99.90;;;;;;5019873;28;20430;-78
2021/12/20 01:38:28;;;;;;;56.67;23.05;;;3.40;99.90;;;;;;5020418;28;20398;-78
2021/12/20 01:40:54;;;;;;;113.32;21.95;;;3.40;99.90;;;;;;5018886;28;20552;-78
2021/12/20 01:43:20;;;;;;;181.70;25.08;;;3.30;99.90;;;;;;5018727;28;20030;-78
2021/12/20 01:45:49;;;;;;;217.70;26.15;;;3.30;99.90;;;;;;5018744;28;20038;-78
2021/12/20 01:48:18;;;;;;;303.13;28.48;;;3.30;99.90;;;;;;5020333;28;20030;-77
2021/12/20 01:53:18;;;;;;;96.45;19.52;;;3.10;99.90;;;;;;5020272;28;20490;-78
2021/12/20 01:55:43;;;;;;;156.87;20.63;;;3.10;99.90;;;;;;5018467;28;20068;-78
2021/12/20 01:58:09;;;;;;;177.52;20.95;;;3.10;99.90;;;;;;5018440;28;20279;-77
2021/12/20 02:00:37;;;;;;;180.93;24.27;;;3.10;99.90;;;;;;5018653;28;20026;-77
2021/12/20 02:03:03;;;;;;;284.67;27.30;;;3.10;99.90;;;;;;5019759;28;20053;-77
2021/12/20 02:05:50;;;;;;;142.25;21.85;;;3.10;99.90;;;;;;5019345;28;20502;-77
2021/12/20 02:08:22;;;;;;;131.30;18.23;;;3.10;99.90;;;;;;5019794;28;20498;-78
2021/12/20 02:10:49;;;;;;;168.27;20.02;;;3.00;99.90;;;;;;5019401;28;20026;-78
2021/12/20 02:13:17;;;;;;;107.65;20.02;;;2.90;99.90;;;;;;5019542;28;20105;-78
2021/12/20 02:15:43;;;;;;;159.27;19.38;;;2.80;99.90;;;;;;5019525;28;20072;-78
2021/12/20 02:18:09;;;;;;;112.10;18.10;;;2.80;99.90;;;;;;5018969;28;20417;-79
2021/12/20 02:20:36;;;;;;;84.85;17.05;;;2.70;99.90;;;;;;5017876;28;20033;-79
2021/12/20 02:23:03;;;;;;;70.05;16.40;;;2.70;99.90;;;;;;5018009;28;20099;-78
2021/12/20 02:25:30;;;;;;;102.65;18.00;;;2.60;99.90;;;;;;5017925;28;20087;-78
2021/12/20 02:27:58;;;;;;;81.38;17.58;;;2.50;99.90;;;;;;5018792;28;20026;-79
2021/12/20 02:38:33;;;;;;;177.20;20.23;;;2.50;99.90;;;;;;5007308;28;20033;-79
2021/12/20 02:41:08;;;;;;;161.90;22.15;;;2.50;99.90;;;;;;5018904;28;20076;-79
2021/12/20 02:43:39;;;;;;;147.70;18.33;;;2.50;99.90;;;;;;5018957;28;20076;-79
2021/12/20 02:46:11;;;;;;;182.70;18.35;;;2.60;99.90;;;;;;5018815;28;20533;-79
2021/12/20 02:48:37;;;;;;;163.02;18.50;;;2.50;99.90;;;;;;5017506;28;20390;-79
2021/12/20 02:51:02;;;;;;;152.20;17.30;;;2.50;99.90;;;;;;5018509;28;20025;-78
2021/12/20 02:53:28;;;;;;;252.35;23.60;;;2.50;99.90;;;;;;5018871;28;20033;-78
2021/12/20 02:55:54;;;;;;;168.98;21.25;;;2.40;99.90;;;;;;5018686;28;20022;-79
2021/12/20 02:58:19;;;;;;;192.48;19.23;;;2.40;99.90;;;;;;5013276;28;20031;-79
2021/12/20 03:00:45;;;;;;;288.90;30.08;;;2.40;99.90;;;;;;5015935;28;20101;-78
2021/12/20 03:03:11;;;;;;;202.30;19.98;;;2.50;99.90;;;;;;5017373;28;20026;-78
2021/12/20 03:05:37;;;;;;;262.88;24.45;;;2.50;99.90;;;;;;5018232;28;20050;-79
2021/12/20 03:08:04;;;;;;;97.05;19.00;;;2.40;99.90;;;;;;5017038;28;20573;-78
2021/12/20 03:10:31;;;;;;;98.95;18.73;;;2.50;99.90;;;;;;5016963;28;20530;-78
2021/12/20 03:12:58;;;;;;;166.48;20.17;;;2.50;99.90;;;;;;5017016;28;20029;-78
2021/12/20 03:15:26;;;;;;;112.07;19.35;;;2.60;99.90;;;;;;5018253;28;20045;-78
2021/12/20 03:17:54;;;;;;;93.60;16.77;;;2.60;99.90;;;;;;5018576;28;20117;-78
2021/12/20 03:20:21;;;;;;;110.25;16.48;;;2.60;99.90;;;;;;5018268;28;20026;-78
2021/12/20 03:22:48;;;;;;;127.93;17.63;;;2.50;99.90;;;;;;5016985;28;20036;-78
2021/12/20 03:25:14;;;;;;;182.50;18.33;;;2.40;99.90;;;;;;5018134;28;20112;-78
2021/12/20 03:27:40;;;;;;;110.10;16.35;;;2.20;99.90;;;;;;5017966;28;20064;-79
2021/12/20 03:30:08;;;;;;;65.70;14.88;;;2.10;99.90;;;;;;5017183;28;20026;-78
2021/12/20 03:32:34;;;;;;;73.10;14.90;;;2.00;99.90;;;;;;5018095;28;20097;-78
2021/12/20 03:34:59;;;;;;;32.85;13.10;;;2.00;99.90;;;;;;5017740;28;20052;-78
2021/12/20 03:37:25;;;;;;;62.70;13.27;;;2.00;99.90;;;;;;5018278;28;20033;-78
2021/12/20 03:39:51;;;;;;;40.28;12.15;;;1.80;99.90;;;;;;5017893;28;20026;-78
2021/12/20 03:42:19;;;;;;;27.63;12.43;;;1.80;99.90;;;;;;5018023;28;20029;-78
2021/12/20 03:44:45;;;;;;;16.02;12.15;;;1.80;99.90;;;;;;5017782;28;20026;-78
2021/12/20 03:47:12;;;;;;;19.25;12.88;;;1.70;99.90;;;;;;5016600;28;20048;-78
2021/12/20 03:49:40;;;;;;;42.97;12.57;;;1.70;99.90;;;;;;5017415;28;20470;-78
2021/12/20 03:52:07;;;;;;;24.17;12.18;;;1.50;99.90;;;;;;5017955;28;20018;-78
2021/12/20 03:54:34;;;;;;;24.10;11.73;;;1.40;99.90;;;;;;5016359;28;20026;-78
2021/12/20 03:56:59;;;;;;;36.13;14.18;;;1.40;99.90;;;;;;5017613;28;20018;-78
2021/12/20 03:59:27;;;;;;;20.40;13.07;;;1.40;99.90;;;;;;5006418;28;20038;-78
2021/12/20 04:01:54;;;;;;;25.70;13.75;;;1.40;99.90;;;;;;5017721;28;20026;-78
2021/12/20 04:04:20;;;;;;;34.63;13.95;;;1.40;99.90;;;;;;5016190;28;20032;-78
2021/12/20 04:06:46;;;;;;;22.15;12.85;;;1.30;99.90;;;;;;5016206;28;20046;-78
2021/12/20 04:09:12;;;;;;;26.35;12.88;;;1.30;99.90;;;;;;5016078;28;20061;-78
2021/12/20 04:11:37;;;;;;;42.13;14.55;;;1.30;99.90;;;;;;5017411;28;20037;-78
2021/12/20 04:14:03;;;;;;;94.93;17.17;;;1.30;99.90;;;;;;5017453;28;20033;-78
2021/12/20 04:16:29;;;;;;;148.38;19.65;;;1.30;99.90;;;;;;5016243;28;20026;-78
2021/12/20 04:18:56;;;;;;;59.38;16.50;;;1.30;99.90;;;;;;5022476;28;20509;-78
2021/12/20 04:21:22;;;;;;;391.70;31.05;;;1.20;99.90;;;;;;5035849;28;20049;-78
2021/12/20 04:23:49;;;;;;;367.63;26.85;;;1.20;99.90;;;;;;5036990;28;20037;-78
2021/12/20 04:26:14;;;;;;;420.00;29.88;;;1.20;99.90;;;;;;5037236;28;20026;-78
2021/12/20 04:28:41;;;;;;;267.58;20.73;;;1.10;99.90;;;;;;5030466;28;20109;-78
2021/12/20 04:31:07;;;;;;;321.67;19.15;;;1.20;99.90;;;;;;5017524;28;20025;-77
2021/12/20 04:33:33;;;;;;;451.38;30.17;;;1.20;99.90;;;;;;5017328;28;20079;-78
2021/12/20 04:35:59;;;;;;;352.50;28.70;;;1.20;99.90;;;;;;5017047;28;20101;-78
2021/12/20 04:38:28;;;;;;;318.70;25.48;;;1.20;99.90;;;;;;5015928;28;20127;-78
2021/12/20 04:40:54;;;;;;;449.17;35.33;;;1.20;99.90;;;;;;5018015;28;20505;-78
2021/12/20 04:43:20;;;;;;;227.27;20.65;;;1.10;99.90;;;;;;5021083;28;20030;-78
2021/12/20 04:45:46;;;;;;;342.88;22.63;;;1.00;99.90;;;;;;5019796;28;20116;-78
2021/12/20 04:48:12;;;;;;;257.27;20.52;;;1.00;99.90;;;;;;5019797;28;20030;-77
2021/12/20 04:50:38;;;;;;;343.48;24.45;;;1.00;99.90;;;;;;5020924;28;20026;-78
2021/12/20 04:53:05;;;;;;;314.08;21.20;;;1.00;99.90;;;;;;5019920;28;20030;-78
2021/12/20 04:55:32;;;;;;;292.75;22.17;;;0.90;99.90;;;;;;5021031;28;20426;-77
2021/12/20 04:57:59;;;;;;;312.90;25.05;;;0.90;99.90;;;;;;5021041;28;20117;-78
2021/12/20 05:00:30;;;;;;;78.03;13.73;;;0.90;99.90;;;;;;5033471;28;20078;-78
2021/12/20 05:02:57;;;;;;;138.32;15.73;;;1.00;99.90;;;;;;5039397;28;20112;-78
2021/12/20 05:05:23;;;;;;;86.57;14.65;;;1.00;99.90;;;;;;5040421;28;20158;-78
2021/12/20 05:07:49;;;;;;;117.82;15.55;;;1.00;99.90;;;;;;5040365;28;20409;-78
2021/12/20 05:10:27;;;;;;;82.38;14.40;;;1.10;99.90;;;;;;5038987;28;20026;-78
2021/12/20 05:12:55;;;;;;;88.00;15.70;;;1.10;99.90;;;;;;5040634;28;20026;-78
2021/12/20 05:15:22;;;;;;;116.22;15.77;;;1.20;99.90;;;;;;5040332;28;20029;-77
2021/12/20 05:17:48;;;;;;;262.73;21.45;;;1.10;99.90;;;;;;5038955;28;20040;-78
2021/12/20 05:20:13;;;;;;;134.80;14.77;;;1.10;99.90;;;;;;5038506;28;20025;-78
2021/12/20 05:22:39;;;;;;;130.60;13.90;;;1.10;99.90;;;;;;5038815;28;20493;-77
2021/12/20 05:25:05;;;;;;;128.50;15.45;;;0.90;99.90;;;;;;5040109;28;20223;-77
2021/12/20 05:27:31;;;;;;;151.93;16.50;;;0.90;99.90;;;;;;5040112;28;20053;-78
2021/12/20 05:29:57;;;;;;;105.05;14.95;;;0.90;99.90;;;;;;5023070;28;20030;-77
2021/12/20 05:32:22;;;;;;;88.88;14.10;;;0.80;99.90;;;;;;5018903;28;20033;-78
2021/12/20 05:34:48;;;;;;;152.52;19.60;;;0.80;99.90;;;;;;5019788;28;20490;-78
2021/12/20 05:37:16;;;;;;;81.72;16.27;;;0.90;99.90;;;;;;5020422;28;20034;-78
2021/12/20 05:39:42;;;;;;;174.45;18.30;;;1.00;99.90;;;;;;5020154;28;20367;-78
2021/12/20 05:42:08;;;;;;;135.38;17.33;;;1.00;99.90;;;;;;5020233;28;20073;-78
2021/12/20 05:44:33;;;;;;;75.40;14.65;;;0.90;99.90;;;;;;5020271;28;20076;-78
2021/12/20 05:46:59;;;;;;;68.25;15.40;;;0.90;99.90;;;;;;5020162;28;20393;-79
2021/12/20 05:49:26;;;;;;;113.28;16.67;;;0.90;99.90;;;;;;5019706;28;20034;-79
2021/12/20 05:51:51;;;;;;;137.55;19.05;;;0.90;99.90;;;;;;5019311;28;20022;-79
2021/12/20 05:54:18;;;;;;;100.72;15.82;;;0.80;99.90;;;;;;5019831;28;20452;-78
2021/12/20 05:56:43;;;;;;;89.03;16.42;;;0.80;99.90;;;;;;5018627;28;20084;-79
2021/12/20 05:59:09;;;;;;;97.05;13.38;;;0.80;99.90;;;;;;5019780;28;20022;-79
2021/12/20 06:01:35;;;;;;;42.70;12.77;;;0.70;99.90;;;;;;5019817;28;20040;-79
2021/12/20 06:04:01;;;;;;;59.70;13.05;;;0.70;99.90;;;;;;5018170;28;20029;-78
2021/12/20 06:06:28;;;;;;;44.35;11.05;;;0.70;99.90;;;;;;5018232;28;20084;-78
2021/12/20 06:08:54;;;;;;;48.63;11.85;;;0.60;99.90;;;;;;5019712;28;20034;-78
2021/12/20 06:11:20;;;;;;;53.47;12.30;;;0.60;99.90;;;;;;5019444;28;20022;-78
2021/12/20 06:13:46;;;;;;;60.72;13.73;;;0.50;99.90;;;;;;5019538;28;20028;-78
2021/12/20 06:16:12;;;;;;;54.90;12.38;;;0.60;99.90;;;;;;5019560;28;20104;-78
2021/12/20 06:18:37;;;;;;;111.57;15.85;;;0.50;99.90;;;;;;5019252;28;20033;-79
2021/12/20 06:21:03;;;;;;;179.15;16.55;;;0.50;99.90;;;;;;5019528;28;20486;-79
2021/12/20 06:23:29;;;;;;;103.55;15.88;;;0.50;99.90;;;;;;5019238;28;20053;-78
2021/12/20 06:25:54;;;;;;;75.93;12.68;;;0.50;99.90;;;;;;5018079;28;20022;-78
2021/12/20 06:28:20;;;;;;;65.28;12.63;;;0.50;99.90;;;;;;5018995;28;20096;-78
2021/12/20 06:30:47;;;;;;;93.50;13.60;;;0.50;99.90;;;;;;5051282;28;20037;-78
2021/12/20 06:33:13;;;;;;;77.93;13.65;;;0.40;99.90;;;;;;5017863;28;20052;-78
2021/12/20 06:35:39;;;;;;;67.05;15.30;;;0.40;99.90;;;;;;5018695;28;20026;-78
2021/12/20 06:38:07;;;;;;;43.97;12.15;;;0.40;99.90;;;;;;5017757;28;20049;-78
2021/12/20 06:40:34;;;;;;;49.75;12.55;;;0.40;99.90;;;;;;5017831;28;20029;-78
2021/12/20 06:43:01;;;;;;;40.63;11.80;;;0.30;99.90;;;;;;5018810;28;20557;-78
2021/12/20 06:45:30;;;;;;;114.00;16.00;;;0.40;99.90;;;;;;5019450;28;20551;-77
2021/12/20 06:47:56;;;;;;;51.28;13.07;;;0.40;99.90;;;;;;5017748;28;20497;-78
2021/12/20 06:50:22;;;;;;;80.45;13.95;;;0.40;99.90;;;;;;5018775;28;20064;-77
2021/12/20 06:52:48;;;;;;;53.67;13.00;;;0.40;99.90;;;;;;5017501;28;20026;-78
2021/12/20 06:55:14;;;;;;;21.85;11.45;;;0.30;99.90;;;;;;5018663;28;20022;-78
2021/12/20 06:57:40;;;;;;;47.35;12.63;;;0.30;99.90;;;;;;5018572;28;20018;-78
2021/12/20 07:00:06;;;;;;;57.55;13.05;;;0.30;99.90;;;;;;5017470;28;20049;-78
2021/12/20 07:02:32;;;;;;;76.68;13.70;;;0.30;99.90;;;;;;5017157;28;20057;-77
2021/12/20 07:04:58;;;;;;;60.83;12.07;;;0.20;99.90;;;;;;5018643;28;20429;-78
2021/12/20 07:07:24;;;;;;;65.60;13.30;;;0.20;99.90;;;;;;5018257;28;20113;-78
2021/12/20 07:09:50;;;;;;;150.38;18.02;;;0.30;99.90;;;;;;5018537;28;20030;-78
2021/12/20 07:12:15;;;;;;;169.70;18.05;;;0.30;99.90;;;;;;5018250;28;20030;-78
2021/12/20 07:14:42;;;;;;;74.68;15.93;;;0.20;99.90;;;;;;5017171;28;20026;-78
2021/12/20 07:17:08;;;;;;;151.98;17.00;;;0.30;99.90;;;;;;5016880;28;20033;-78
2021/12/20 07:19:34;;;;;;;58.75;14.02;;;0.30;99.90;;;;;;5016896;28;20405;-78
2021/12/20 07:21:59;;;;;;;79.57;13.82;;;0.30;99.90;;;;;;5018127;28;20060;-78
2021/12/20 07:24:25;;;;;;;69.07;15.95;;;0.30;99.90;;;;;;5018193;28;20106;-78
2021/12/20 07:26:51;;;;;;;36.75;12.07;;;0.30;99.90;;;;;;5018018;28;20421;-78
2021/12/20 07:29:19;;;;;;;60.00;13.15;;;0.30;99.90;;;;;;5018103;28;20034;-78
2021/12/20 07:31:45;;;;;;;88.93;14.50;;;0.20;99.90;;;;;;5018065;28;20061;-78
2021/12/20 07:34:11;;;;;;;58.30;13.95;;;0.10;99.90;;;;;;5017874;28;20037;-78
2021/12/20 07:36:38;;;;;;;90.85;13.90;;;0.20;99.90;;;;;;5017905;28;20398;-78
2021/12/20 07:39:06;;;;;;;39.30;12.27;;;0.10;99.90;;;;;;5016738;28;20030;-78
2021/12/20 07:41:32;;;;;;;22.38;11.27;;;0.10;99.90;;;;;;5017686;28;20018;-78
2021/12/20 07:43:57;;;;;;;63.90;14.13;;;0.10;99.90;;;;;;5017974;28;20032;-78
2021/12/20 07:46:23;;;;;;;29.67;12.70;;;0.10;99.90;;;;;;5011497;28;20049;-78
2021/12/20 07:48:50;;;;;;;50.22;13.50;;;0.10;99.90;;;;;;5009991;28;20084;-78
2021/12/20 07:51:17;;;;;;;39.45;13.65;;;0.10;99.90;;;;;;5016521;28;20024;-78
2021/12/20 07:53:43;;;;;;;49.90;14.20;;;0.10;99.90;;;;;;5016579;28;20109;-79
2021/12/20 07:56:09;;;;;;;75.45;16.25;;;0.20;99.90;;;;;;5017432;28;20047;-80
2021/12/20 07:58:35;;;;;;;46.15;14.10;;;0.00;99.90;;;;;;5018947;28;20473;-78
2021/12/20 08:01:03;;;;;;;27.17;13.93;;;0.00;99.90;;;;;;5017619;28;20026;-79
2021/12/20 08:03:29;;;;;;;49.25;16.20;;;0.00;99.90;;;;;;5017421;28;20022;-80
2021/12/20 08:05:55;;;;;;;33.83;15.55;;;0.00;99.90;;;;;;5017465;28;20037;-80
2021/12/20 08:08:21;;;;;;;35.10;15.93;;;0.00;99.90;;;;;;5016252;28;20033;-80
2021/12/20 08:10:47;;;;;;;45.70;18.25;;;0.00;99.90;;;;;;5017410;28;20049;-79
2021/12/20 08:13:13;;;;;;;27.13;16.67;;;0.00;99.90;;;;;;5017641;28;20022;-79
2021/12/20 08:15:39;;;;;;;21.35;15.32;;;0.00;99.90;;;;;;5015064;28;20033;-79
2021/12/20 08:18:06;;;;;;;19.70;16.55;;;0.10;99.90;;;;;;5016645;28;20100;-80
2021/12/20 08:20:32;;;;;;;18.00;15.25;;;0.10;99.90;;;;;;5015360;28;20100;-80
2021/12/20 08:22:58;;;;;;;38.40;19.52;;;0.10;99.90;;;;;;5016778;28;20124;-80
2021/12/20 08:25:24;;;;;;;49.10;22.80;;;0.10;99.90;;;;;;5013586;28;20065;-80
2021/12/20 08:27:51;;;;;;;56.25;30.25;;;0.00;99.90;;;;;;5016038;28;20081;-81
2021/12/20 08:30:17;;;;;;;40.63;19.25;;;0.10;99.90;;;;;;5015740;28;20505;-81
2021/12/20 08:32:43;;;;;;;28.55;18.73;;;0.10;99.90;;;;;;5016801;28;20093;-81
2021/12/20 08:35:11;;;;;;;48.55;23.00;;;0.10;99.90;;;;;;5016657;28;20018;-80
2021/12/20 08:37:37;;;;;;;63.80;22.05;;;0.10;99.90;;;;;;5017308;28;20160;-81
2021/12/20 08:40:05;;;;;;;34.55;22.63;;;0.10;99.90;;;;;;5017308;28;20348;-81
2021/12/20 08:42:31;;;;;;;39.22;24.35;;;0.20;99.90;;;;;;5016941;28;20083;-80
2021/12/20 08:44:57;;;;;;;40.15;23.02;;;0.20;99.90;;;;;;5016714;28;20022;-80
2021/12/20 08:47:24;;;;;;;190.80;82.07;;;0.20;99.90;;;;;;5048191;28;20065;-81
2021/12/20 08:49:49;;;;;;;282.33;142.30;;;0.20;99.90;;;;;;5016308;28;20022;-80
2021/12/20 08:52:16;;;;;;;84.78;32.03;;;0.30;99.90;;;;;;5015239;28;20097;-80
2021/12/20 08:54:42;;;;;;;122.55;33.13;;;0.30;99.90;;;;;;5048376;28;20045;-80
2021/12/20 08:57:08;;;;;;;63.78;28.38;;;0.30;99.90;;;;;;5047190;28;20040;-79
2021/12/20 08:59:34;;;;;;;500.38;322.42;;;0.40;99.90;;;;;;5016988;28;20529;-80
2021/12/20 09:02:00;;;;;;;92.07;36.58;;;0.40;99.90;;;;;;5029643;28;20033;-80
2021/12/20 09:04:26;;;;;;;64.97;30.52;;;0.50;99.90;;;;;;5036556;28;20390;-80
2021/12/20 09:06:53;;;;;;;51.65;28.15;;;0.50;99.90;;;;;;5036610;28;20042;-80
2021/12/20 09:09:19;;;;;;;83.35;28.17;;;0.60;99.90;;;;;;5035310;28;20022;-80
2021/12/20 09:11:45;;;;;;;202.68;105.55;;;0.60;99.90;;;;;;5036514;28;20581;-80
2021/12/20 09:14:13;;;;;;;148.02;30.38;;;0.60;99.90;;;;;;5035337;28;20022;-80
2021/12/20 09:16:39;;;;;;;162.65;42.50;;;0.70;99.90;;;;;;5036523;28;20025;-80
2021/12/20 09:19:05;;;;;;;63.88;28.27;;;0.80;99.90;;;;;;5018666;28;20058;-78
2021/12/20 09:21:31;;;;;;;99.55;28.48;;;0.70;99.90;;;;;;5040139;28;20068;-79
2021/12/20 09:23:57;;;;;;;72.03;26.50;;;0.80;99.90;;;;;;5044170;28;20056;-79
2021/12/20 09:26:22;;;;;;;65.35;26.90;;;0.80;99.90;;;;;;5048362;28;20032;-78
2021/12/20 09:28:48;;;;;;;87.93;26.40;;;0.90;99.90;;;;;;5019349;28;20025;-78
2021/12/20 09:31:14;;;;;;;182.15;33.92;;;0.90;99.90;;;;;;5020104;28;20072;-78
2021/12/20 09:33:40;;;;;;;100.57;33.05;;;1.00;99.90;;;;;;5019613;28;20489;-78
2021/12/20 09:36:06;;;;;;;40.47;26.60;;;1.00;99.90;;;;;;5019811;28;20029;-79
2021/12/20 09:38:33;;;;;;;55.30;28.02;;;1.20;99.90;;;;;;5020080;28;20513;-79
2021/12/20 09:43:42;;;;;;;41.13;28.35;;;1.30;99.90;;;;;;5019132;28;20030;-79
2021/12/20 09:46:08;;;;;;;44.40;28.88;;;1.40;99.90;;;;;;5020053;28;20080;-79
2021/12/20 09:48:36;;;;;;;43.63;28.55;;;1.40;99.90;;;;;;5019512;28;20026;-79
2021/12/20 09:51:05;;;;;;;33.95;27.33;;;1.50;99.90;;;;;;5019868;28;20030;-79
2021/12/20 09:53:31;;;;;;;39.50;27.08;;;1.60;99.90;;;;;;5019860;28;20029;-79
2021/12/20 09:55:59;;;;;;;36.00;29.17;;;1.70;99.90;;;;;;5019728;28;20100;-78
2021/12/20 09:58:27;;;;;;;40.70;30.60;;;1.80;99.90;;;;;;5019910;28;20030;-77
2021/12/20 10:00:54;;;;;;;35.42;26.17;;;1.90;99.90;;;;;;5019574;28;20034;-77
2021/12/20 10:03:22;;;;;;;31.08;24.52;;;1.90;99.90;;;;;;5019603;28;20438;-77
2021/12/20 10:05:48;;;;;;;26.83;22.85;;;1.90;99.90;;;;;;5019590;28;20057;-77
2021/12/20 10:08:20;;;;;;;32.50;24.85;;;1.90;99.90;;;;;;5019136;28;20038;-78
2021/12/20 10:10:50;;;;;;;31.40;25.13;;;1.90;99.90;;;;;;5051252;28;20037;-77
2021/12/20 10:13:24;;;;;;;30.98;24.33;;;1.90;99.90;;;;;;5019534;28;20097;-77
2021/12/20 10:15:51;;;;;;;92.07;43.90;;;2.00;99.90;;;;;;5018262;28;20026;-78
2021/12/20 10:18:17;;;;;;;38.15;26.92;;;1.90;99.90;;;;;;5019005;28;20489;-77
2021/12/20 10:20:50;;;;;;;39.88;28.40;;;1.90;99.90;;;;;;5019376;28;20025;-77
2021/12/20 10:23:28;;;;;;;55.97;40.50;;;2.00;99.90;;;;;;5017875;28;20053;-77
2021/12/20 10:26:09;;;;;;;41.60;28.60;;;2.10;99.90;;;;;;5017463;28;20025;-77
2021/12/20 10:28:36;;;;;;;;;;;2.10;99.90;;;;;;5019297;28;20015;-77
2021/12/20 10:31:10;;;;;;;39.45;29.77;;;2.30;99.90;;;;;;5019130;28;19928;-77
2021/12/20 10:33:37;;;;;;;67.45;51.92;;;2.40;99.90;;;;;;5018998;28;20058;-77
2021/12/20 10:36:06;;;;;;;43.42;32.08;;;2.50;99.90;;;;;;5018834;28;20021;-78
2021/12/20 10:38:40;;;;;;;50.83;39.15;;;2.50;99.90;;;;;;5018538;28;20029;-77
2021/12/20 10:41:20;;;;;;;47.28;33.17;;;2.60;99.90;;;;;;5017607;28;20093;-77
2021/12/20 10:43:50;;;;;;;40.22;31.83;;;2.70;99.90;;;;;;5017662;28;20033;-77
2021/12/20 10:46:24;;;;;;;48.30;34.88;;;2.80;99.90;;;;;;5017201;28;20026;-77
2021/12/20 10:48:59;;;;;;;39.58;30.92;;;2.80;99.90;;;;;;5031294;28;20159;-77
2021/12/20 10:51:32;;;;;;;41.25;30.33;;;2.90;99.90;;;;;;5038661;28;20013;-76
2021/12/20 10:54:03;;;;;;;46.58;36.45;;;3.00;99.90;;;;;;5017959;28;20029;-75
2021/12/20 10:56:34;;;;;;;41.25;30.27;;;3.00;99.90;;;;;;5016778;28;20049;-76
2021/12/20 10:59:04;;;;;;;43.75;31.67;;;3.10;99.90;;;;;;5018359;28;20425;-76
2021/12/20 11:04:41;;;;;;;37.30;28.13;;;3.20;99.90;;;;;;5033010;28;20092;-75
2021/12/20 11:09:45;;;;;;;35.17;27.67;;;3.30;99.90;;;;;;5018522;28;20037;-75
2021/12/20 11:12:13;;;;;;;33.35;25.15;;;3.40;99.90;;;;;;5017562;28;20049;-75
2021/12/20 11:14:43;;;;;;;29.15;24.70;;;3.40;99.90;;;;;;5017708;28;20022;-75
2021/12/20 11:17:12;;;;;;;37.50;24.25;;;3.50;99.90;;;;;;5017673;28;20044;-75
2021/12/20 11:19:39;;;;;;;30.20;23.13;;;3.50;99.90;;;;;;5017452;28;20033;-75
2021/12/20 11:22:17;;;;;;;27.98;24.38;;;3.50;99.90;;;;;;5017566;28;20075;-75
2021/12/20 11:24:58;;;;;;;31.35;24.13;;;3.60;99.90;;;;;;5016602;28;20069;-75
2021/12/20 11:27:34;;;;;;;28.58;24.42;;;3.60;99.90;;;;;;5018336;28;20061;-75
2021/12/20 11:30:05;;;;;;;29.90;26.23;;;3.70;99.90;;;;;;5016730;28;20025;-75
2021/12/20 11:32:31;;;;;;;31.17;25.73;;;3.80;99.90;;;;;;5016837;28;20030;-75
2021/12/20 11:34:56;;;;;;;29.98;24.35;;;3.90;99.90;;;;;;5016418;28;20556;-75
2021/12/20 11:37:25;;;;;;;34.25;25.30;;;4.00;99.90;;;;;;5018217;28;20109;-75
2021/12/20 11:39:52;;;;;;;31.02;25.40;;;4.10;99.90;;;;;;5017973;28;20152;-75
2021/12/20 11:42:19;;;;;;;30.33;23.92;;;4.10;99.90;;;;;;5016600;28;20131;-75
2021/12/20 11:44:47;;;;;;;29.67;25.17;;;4.20;99.90;;;;;;5017877;28;20076;-75
2021/12/20 11:47:31;;;;;;;31.77;25.65;;;4.30;99.90;;;;;;5018122;28;20088;-75
2021/12/20 11:50:05;;;;;;;28.58;23.48;;;4.40;99.90;;;;;;5017144;28;20074;-76
2021/12/20 11:52:37;;;;;;;29.17;24.13;;;4.50;99.90;;;;;;5016374;28;20505;-76
2021/12/20 11:55:19;;;;;;;24.83;20.92;;;4.60;99.90;;;;;;5018055;28;20022;-75
2021/12/20 11:57:50;;;;;;;31.55;22.92;;;4.70;99.90;;;;;;5016215;28;20026;-76
2021/12/20 12:00:30;;;;;;;30.00;22.30;;;4.80;99.90;;;;;;5017677;28;20490;-76
2021/12/20 12:03:18;;;;;;;50.58;25.25;;;4.90;99.90;;;;;;5017990;28;20022;-76
2021/12/20 12:05:46;;;;;;;33.05;22.73;;;5.00;99.90;;;;;;5016479;28;20033;-76
2021/12/20 12:08:52;;;;;;;28.92;23.83;;;5.10;99.90;;;;;;5016130;28;20050;-76
2021/12/20 12:11:25;;;;;;;29.15;23.00;;;5.20;99.90;;;;;;5017601;28;20060;-76
2021/12/20 12:14:02;;;;;;;25.15;21.67;;;5.40;99.90;;;;;;5016205;28;20018;-76
2021/12/20 12:16:47;;;;;;;30.67;24.05;;;5.40;99.90;;;;;;5016258;28;20025;-75
2021/12/20 12:19:38;;;;;;;27.80;22.50;;;5.50;99.90;;;;;;5017191;28;20429;-76
2021/12/20 12:22:24;;;;;;;28.70;23.75;;;5.60;99.90;;;;;;5017238;28;20508;-76
2021/12/20 12:24:50;;;;;;;28.70;23.83;;;5.60;99.90;;;;;;5017119;28;20018;-76
2021/12/20 12:27:31;;;;;;;27.10;21.88;;;5.70;99.90;;;;;;5017404;28;20029;-76
2021/12/20 12:30:28;;;;;;;25.55;21.83;;;5.70;99.90;;;;;;5017122;28;20113;-75
2021/12/20 12:32:54;;;;;;;30.90;22.80;;;5.80;99.90;;;;;;5016999;28;20037;-76
2021/12/20 12:35:49;;;;;;;28.67;21.35;;;5.90;99.90;;;;;;5015788;28;20028;-76
2021/12/20 12:38:31;;;;;;;27.85;22.58;;;5.90;99.90;;;;;;5015937;28;20026;-76
2021/12/20 12:41:07;;;;;;;27.88;21.27;;;6.00;99.90;;;;;;5016033;28;20117;-76
2021/12/20 12:43:50;;;;;;;26.10;20.40;;;6.10;99.90;;;;;;5017266;28;20113;-76
2021/12/20 12:46:36;;;;;;;27.02;22.08;;;6.20;99.90;;;;;;5017177;28;20029;-76
2021/12/20 12:49:23;;;;;;;22.30;18.58;;;6.30;99.90;;;;;;5016895;28;20037;-77
2021/12/20 12:52:01;;;;;;;23.52;20.23;;;6.40;99.90;;;;;;5015965;28;20109;-76
2021/12/20 12:54:33;;;;;;;22.17;19.85;;;6.40;99.90;;;;;;5011894;28;20031;-77
2021/12/20 12:57:11;;;;;;;26.42;19.40;;;6.40;99.90;;;;;;5009876;28;20096;-74
2021/12/20 12:59:40;;;;;;;27.20;21.13;;;6.40;99.90;;;;;;5017178;28;20029;-74